Levante — 9HOB7 — position and weather

sailwx.info

Track history (hours):
 
Tides and Currents Weather Stations Pressure Air Temp Water Temp Dewpoint Dewpoint Depression Visibility Wind Speed Wind Dir Waves Ship Positions

Levante

Last reported at 2018-Apr-20 02:42 UTC. Time now 2018-Apr-21 21:22 UTC.
Position N 41°36' E 141°23'.

Length 188.3 m; beam 28 m; draft 10.1 m.

Type: Ship. MMSI: 215440000.

Date/timePositionNaut miles runAvg speedWind from/ knotsBaromVisibWave heightAir tempDewpointWater temp
2018-Apr-20 02:42N 41°36' E 141°23'314.0
2018-Apr-20 02:30N 41°36' E 141°19'713.4
2018-Apr-20 02:00N 41°37' E 141°10'713.4
2018-Apr-20 01:30N 41°37' E 141°01'714.2
2018-Apr-20 01:00N 41°38' E 140°52'713.5
2018-Apr-20 00:30N 41°34' E 140°44'713.8
2018-Apr-20 00:00N 41°30' E 140°36'713.5
2018-Apr-19 23:30N 41°27' E 140°29'713.3
2018-Apr-19 23:00N 41°23' E 140°22'613.0
2018-Apr-19 22:30N 41°19' E 140°14'713.2
2018-Apr-19 22:00N 41°15' E 140°08'612.9
2018-Apr-19 21:30N 41°11' E 140°01'  
2018-Apr-10 16:43N 31°06' E 122°32'2214.2
2018-Apr-10 15:09N 31°13' E 122°08'417.7
2018-Apr-10 14:55N 31°14' E 122°03'2 3.9
2018-Apr-10 14:29N 31°15' E 122°01'2 4.7
2018-Apr-10 14:00N 31°15' E 121°59'26 9.6
2018-Apr-10 11:16N 31°25' E 121°31'2 5.9
2018-Apr-10 10:59N 31°26' E 121°29'3 7.2
2018-Apr-10 10:30N 31°29' E 121°26'4 7.9
2018-Apr-10 10:00N 31°31' E 121°23'510.3
2018-Apr-10 09:30N 31°35' E 121°18'5 9.7
2018-Apr-10 09:00N 31°38' E 121°14'6 9.9
2018-Apr-10 08:26N 31°42' E 121°09'4 9.6
2018-Apr-10 07:59N 31°45' E 121°05'5 9.4
2018-Apr-10 07:27N 31°47' E 120°60'  
Track history (hours):
 
Tides and Currents Weather Stations Pressure Air Temp Water Temp Dewpoint Dewpoint Depression Visibility Wind Speed Wind Dir Waves Ship Positions

Levante

Last reported at 2018-Apr-20 02:42 UTC. Time now 2018-Apr-21 21:22 UTC.
Position N 41°36' E 141°23'.

Length 188.3 m; beam 28 m; draft 10.1 m.

Type: Ship. MMSI: 215440000.

Date/timePositionNaut miles runAvg speedWind from/ knotsBaromVisibWave heightAir tempDewpointWater temp
2018-Apr-20 02:42N 41°36' E 141°23'314.0
2018-Apr-20 02:30N 41°36' E 141°19'713.4
2018-Apr-20 02:00N 41°37' E 141°10'713.4
2018-Apr-20 01:30N 41°37' E 141°01'714.2
2018-Apr-20 01:00N 41°38' E 140°52'713.5
2018-Apr-20 00:30N 41°34' E 140°44'713.8
2018-Apr-20 00:00N 41°30' E 140°36'713.5
2018-Apr-19 23:30N 41°27' E 140°29'713.3
2018-Apr-19 23:00N 41°23' E 140°22'613.0
2018-Apr-19 22:30N 41°19' E 140°14'713.2
2018-Apr-19 22:00N 41°15' E 140°08'612.9
2018-Apr-19 21:30N 41°11' E 140°01'  
2018-Apr-10 16:43N 31°06' E 122°32'2214.2
2018-Apr-10 15:09N 31°13' E 122°08'417.7
2018-Apr-10 14:55N 31°14' E 122°03'2 3.9
2018-Apr-10 14:29N 31°15' E 122°01'2 4.7
2018-Apr-10 14:00N 31°15' E 121°59'26 9.6
2018-Apr-10 11:16N 31°25' E 121°31'2 5.9
2018-Apr-10 10:59N 31°26' E 121°29'3 7.2
2018-Apr-10 10:30N 31°29' E 121°26'4 7.9
2018-Apr-10 10:00N 31°31' E 121°23'510.3
2018-Apr-10 09:30N 31°35' E 121°18'5 9.7
2018-Apr-10 09:00N 31°38' E 121°14'6 9.9
2018-Apr-10 08:26N 31°42' E 121°09'4 9.6
2018-Apr-10 07:59N 31°45' E 121°05'5 9.4
2018-Apr-10 07:27N 31°47' E 120°60'  

Dump ship's entire track history